地図

経路データ

SID SEASON NUMBER BASIN SUBBASIN NAME ISO_TIME NATURE LAT LON WMO_WIND WMO_PRES WMO_AGENCY TRACK_TYPE DIST2LAND LANDFALL IFLAG USA_AGENCY USA_ATCF_ID USA_LAT USA_LON USA_RECORD USA_STATUS USA_WIND USA_PRES USA_SSHS USA_R34_NE USA_R34_SE USA_R34_SW USA_R34_NW USA_R50_NE USA_R50_SE USA_R50_SW USA_R50_NW USA_R64_NE USA_R64_SE USA_R64_SW USA_R64_NW USA_POCI USA_ROCI USA_RMW USA_EYE TOKYO_LAT TOKYO_LON TOKYO_GRADE TOKYO_WIND TOKYO_PRES TOKYO_R50_DIR TOKYO_R50_LONG TOKYO_R50_SHORT TOKYO_R30_DIR TOKYO_R30_LONG TOKYO_R30_SHORT TOKYO_LAND CMA_LAT CMA_LON CMA_CAT CMA_WIND CMA_PRES HKO_LAT HKO_LON HKO_CAT HKO_WIND HKO_PRES NEWDELHI_LAT NEWDELHI_LON NEWDELHI_GRADE NEWDELHI_WIND NEWDELHI_PRES NEWDELHI_CI NEWDELHI_DP NEWDELHI_POCI REUNION_LAT REUNION_LON REUNION_TYPE REUNION_WIND REUNION_PRES REUNION_TNUM REUNION_CI REUNION_RMW REUNION_R34_NE REUNION_R34_SE REUNION_R34_SW REUNION_R34_NW REUNION_R50_NE REUNION_R50_SE REUNION_R50_SW REUNION_R50_NW REUNION_R64_NE REUNION_R64_SE REUNION_R64_SW REUNION_R64_NW BOM_LAT BOM_LON BOM_TYPE BOM_WIND BOM_PRES BOM_TNUM BOM_CI BOM_RMW BOM_R34_NE BOM_R34_SE BOM_R34_SW BOM_R34_NW BOM_R50_NE BOM_R50_SE BOM_R50_SW BOM_R50_NW BOM_R64_NE BOM_R64_SE BOM_R64_SW BOM_R64_NW BOM_ROCI BOM_POCI BOM_EYE BOM_POS_METHOD BOM_PRES_METHOD NADI_LAT NADI_LON NADI_CAT NADI_WIND NADI_PRES WELLINGTON_LAT WELLINGTON_LON WELLINGTON_WIND WELLINGTON_PRES DS824_LAT DS824_LON DS824_STAGE DS824_WIND DS824_PRES TD9636_LAT TD9636_LON TD9636_STAGE TD9636_WIND TD9636_PRES TD9635_LAT TD9635_LON TD9635_WIND TD9635_PRES TD9635_ROCI NEUMANN_LAT NEUMANN_LON NEUMANN_CLASS NEUMANN_WIND NEUMANN_PRES MLC_LAT MLC_LON MLC_CLASS MLC_WIND MLC_PRES USA_GUST BOM_GUST BOM_GUST_PER REUNION_GUST REUNION_GUST_PER USA_SEAHGT USA_SEARAD_NE USA_SEARAD_SE USA_SEARAD_SW USA_SEARAD_NW STORM_SPEED STORM_DIR
1986049S18043 1986 26 SI MM GISTA 1986-02-18 06:00:00 TS -18.2000 42.8000 36 991 reunion main 126 105 _____O____O___ -1 -18.2000 42.8000 3 36 991 3.00000 3.00000 -18.2000 42.8000 2 40 3 88
1986049S18043 1986 26 SI MM GISTA 1986-02-18 09:00:00 TS -18.1952 42.9561 main 105 105 _____P____P___ -1 -18.1700 42.9700 3 36 991 -18.2204 42.9422 2 41 1 40
1986049S18043 1986 26 SI MM GISTA 1986-02-18 12:00:00 TS -18.1197 42.8666 36 991 reunion main 116 116 O____O____P_O_ jtwc_sh SH191986 -17.8000 42.2000 25 -1 -18.2000 43.1000 3 36 991 3.00000 3.00000 -18.2526 43.0775 2 42 -17.8000 42.2000 TC 25 1 282
1986049S18043 1986 26 SI MM GISTA 1986-02-18 15:00:00 TS -18.1753 42.8514 main 116 116 P____P____P_P_ SH191986 -17.8900 42.1900 25 -1 -18.3275 43.1650 3 36 991 -18.3085 43.1991 2 43 -17.8900 42.1900 TC 25 2 206
1986049S18043 1986 26 SI MM GISTA 1986-02-18 18:00:00 TS -18.2571 42.8000 36 991 reunion main 126 126 O____O____O_O_ jtwc_sh SH191986 -18.0000 42.2000 25 -1 -18.5000 43.2000 3 36 991 3.00000 3.00000 -18.4000 43.3000 2 45 -18.0000 42.2000 TC 25 2 200
1986049S18043 1986 26 SI MM GISTA 1986-02-18 21:00:00 TS -18.3690 42.7758 main 126 126 P____P____P_P_ SH191986 -18.1425 42.2425 27 -1 -18.6575 43.2425 3 40 987 -18.5334 43.3756 2 46 -18.1425 42.2425 TC 27 3 172
1986049S18043 1986 26 SI MM GISTA 1986-02-19 00:00:00 TS -18.5231 42.8325 44 984 reunion main 127 118 O____O____P_O_ jtwc_sh SH191986 -18.3000 42.3000 30 -1 -18.8000 43.3000 3 44 984 3.50000 3.50000 -18.6925 43.4300 2 47 -18.3000 42.3000 TC 30 3 158
1986049S18043 1986 26 SI MM GISTA 1986-02-19 03:00:00 TS -18.6676 42.8980 main 120 120 P____P____P_P_ SH191986 -18.4500 42.3575 30 -1 -18.9150 43.4075 3 44 984 -18.8553 43.4694 2 48 -18.4500 42.3575 TC 30 3 158
1986049S18043 1986 26 SI MM GISTA 1986-02-19 06:00:00 TS -18.8000 42.9500 44 984 reunion main 114 114 O____O____O_O_ jtwc_sh SH191986 -18.6000 42.4000 30 -1 -19.0000 43.5000 3 44 984 3.50000 3.50000 -19.0000 43.5000 2 50 -18.6000 42.4000 TC 30 3 164
1986049S18043 1986 26 SI MM GISTA 1986-02-19 09:00:00 TS -18.9106 42.9676 main 119 119 P____P____P_P_ SH191986 -18.7500 42.4075 32 -1 -19.0500 43.5150 3 44 984 -19.0925 43.5403 2 47 -18.7500 42.4075 TC 32 2 176
1986049S18043 1986 26 SI MM GISTA 1986-02-19 12:00:00 TS -19.0162 42.9681 44 984 reunion main 124 124 O____O____P_O_ jtwc_sh SH191986 -18.9000 42.4000 35 0 -19.1000 43.5000 3 44 984 3.50000 3.50000 -19.1650 43.5725 2 45 -18.9000 42.4000 TC 35 2 177
1986049S18043 1986 26 SI MM GISTA 1986-02-19 15:00:00 TS -19.1306 42.9734 main 126 126 P____P____P_P_ SH191986 -19.0500 42.4000 35 0 -19.1925 43.5000 3 40 987 -19.2300 43.5934 2 42 -19.0500 42.4000 TC 35 2 177
1986049S18043 1986 26 SI MM GISTA 1986-02-19 18:00:00 TS -19.2500 42.9750 36 991 reunion main 126 126 O____O____O_O_ jtwc_sh SH191986 -19.2000 42.4000 35 0 -19.3000 43.5000 3 36 991 3.00000 3.00000 -19.3000 43.6000 2 40 -19.2000 42.4000 TC 35 2 180
1986049S18043 1986 26 SI MM GISTA 1986-02-19 21:00:00 TS -19.3613 42.9774 main 130 130 P____P____P_P_ SH191986 -19.3425 42.4000 37 0 -19.4000 43.5000 3 32 994 -19.3603 43.6095 2 38 -19.3425 42.4000 TC 37 2 175
1986049S18043 1986 26 SI MM GISTA 1986-02-20 00:00:00 TS -19.4831 42.9755 28 997 reunion main 133 133 O____O____P_O_ jtwc_sh SH191986 -19.5000 42.4000 40 0 -19.5000 43.5000 2 28 997 2.50000 2.50000 -19.4324 43.6021 2 37 -19.5000 42.4000 TC 40 3 0
1986049S18043 1986 26 SI MM GISTA 1986-02-20 03:00:00 TS -19.6215 42.9728 main 137 137 P____P____P_P_ SH191986 -19.6850 42.4000 42 0 -19.5775 43.5224 2 32 994 -19.5384 43.5687 2 36 -19.6850 42.4000 TC 42 3 0
1986049S18043 1986 26 SI MM GISTA 1986-02-20 06:00:00 TS -19.8000 42.9500 36 991 reunion main 138 137 O____O____O_O_ jtwc_sh SH191986 -19.9000 42.4000 45 0 -19.7000 43.5000 3 36 991 3.00000 3.00000 -19.7000 43.5000 2 35 -19.9000 42.4000 TC 45 4 190
1986049S18043 1986 26 SI MM GISTA 1986-02-20 09:00:00 TS -20.0296 42.8926 main 137 123 P____P____P_P_ SH191986 -20.1275 42.4075 45 0 -19.9125 43.3651 3 40 987 -19.9507 43.3902 2 37 -20.1275 42.4075 TC 45 5 195
1986049S18043 1986 26 SI MM GISTA 1986-02-20 12:00:00 TS -20.3138 42.8113 44 984 reunion main 127 115 O____O____P_O_ jtwc_sh SH191986 -20.4000 42.4000 45 0 -20.2000 43.2000 3 44 984 3.50000 3.50000 -20.2551 43.2453 2 40 -20.4000 42.4000 TC 45 6 194
1986049S18043 1986 26 SI MM GISTA 1986-02-20 15:00:00 TS -20.6505 42.7288 main 114 100 P____P____P_P_ SH191986 -20.7350 42.3650 45 0 -20.5499 43.1074 3 44 984 -20.5819 43.0777 2 42 -20.7350 42.3650 TC 45 7 194
1986049S18043 1986 26 SI MM GISTA 1986-02-20 18:00:00 TS -21.0000 42.6250 44 984 reunion main 103 95 O____O____O_O_ jtwc_sh SH191986 -21.1000 42.3000 45 0 -20.9000 43.0000 3 44 984 3.50000 3.50000 -20.9000 42.9000 2 45 -21.1000 42.3000 TC 45 7 198
1986049S18043 1986 26 SI MM GISTA 1986-02-20 21:00:00 TS -21.3051 42.4989 main 104 103 P____P____P_P_ SH191986 -21.4575 42.2150 45 0 -21.1575 42.8298 3 44 984 -21.1481 42.7359 2 48 -21.4575 42.2150 TC 45 7 204
1986049S18043 1986 26 SI MM GISTA 1986-02-21 00:00:00 TS -21.5962 42.3411 44 984 reunion main 112 108 O____O____P_O_ jtwc_sh SH191986 -21.8000 42.1000 45 0 -21.4000 42.6000 3 44 984 3.50000 3.50000 -21.3849 42.5644 2 52 -21.8000 42.1000 TC 45 7 209
1986049S18043 1986 26 SI MM GISTA 1986-02-21 03:00:00 TS -21.8824 42.1502 main 108 108 P____P____P_P_ SH191986 -22.1075 41.9649 45 0 -21.6851 42.2852 3 44 984 -21.6293 42.3858 2 56 -22.1075 41.9649 TC 45 7 212
1986049S18043 1986 26 SI MM GISTA 1986-02-21 06:00:00 TS -22.1750 41.9500 44 984 reunion main 123 123 O____O____O_O_ jtwc_sh SH191986 -22.4000 41.8000 45 0 -22.0000 42.0000 3 44 984 3.50000 3.50000 -21.9000 42.2000 2 60 -22.4000 41.8000 TC 45 7 210
1986049S18043 1986 26 SI MM GISTA 1986-02-21 09:00:00 TS -22.4860 41.7682 main 145 145 P____P____P_P_ SH191986 -22.6926 41.5851 45 0 -22.3498 41.8996 3 48 980 -22.2091 42.0030 2 58 -22.6926 41.5851 TC 45 7 207
1986049S18043 1986 26 SI MM GISTA 1986-02-21 12:00:00 TS -22.8119 41.6000 52 976 reunion main 173 173 O____O____P_O_ jtwc_sh SH191986 -23.0000 41.4000 45 0 -22.7000 41.8000 3 52 976 4.00000 4.00000 -22.5475 41.7999 2 57 -23.0000 41.4000 TC 45 7 205
1986049S18043 1986 26 SI MM GISTA 1986-02-21 15:00:00 TS -23.1399 41.4435 main 205 205 P____P____P_P_ SH191986 -23.3274 41.3347 45 0 -22.9927 41.5076 3 48 980 -22.9122 41.5967 2 56 -23.3274 41.3347 TC 45 7 202
1986049S18043 1986 26 SI MM GISTA 1986-02-21 18:00:00 TS -23.5000 41.3000 44 984 reunion main 228 228 O____O____O_O_ jtwc_sh SH191986 -23.7000 41.3000 45 0 -23.3000 41.2000 3 44 984 3.50000 3.50000 -23.3000 41.4000 2 55 -23.7000 41.3000 TC 45 8 198
1986049S18043 1986 26 SI MM GISTA 1986-02-21 21:00:00 TS -23.9086 41.1668 main 245 245 P____P____P_P_ SH191986 -24.1350 41.2149 47 0 -23.6774 41.0199 3 44 984 -23.6871 41.2174 2 53 -24.1350 41.2149 TC 47 9 196
1986049S18043 1986 26 SI MM GISTA 1986-02-22 00:00:00 MX -24.3494 41.0355 44 984 reunion main 272 272 O____O____P_O_ jtwc_sh SH191986 -24.6000 41.1000 50 0 -24.1000 40.9000 5 44 984 3.50000 3.50000 -24.0974 41.0418 2 52 -24.6000 41.1000 TC 50 9 195
1986049S18043 1986 26 SI MM GISTA 1986-02-22 03:00:00 MX -24.7885 40.9018 main 293 293 P____P____P_P_ SH191986 -25.0425 40.9574 52 0 -24.5349 40.8220 5 44 984 -24.5340 40.8704 2 51 -25.0425 40.9574 TC 52 9 196
1986049S18043 1986 26 SI MM GISTA 1986-02-22 06:00:00 MX -25.2500 40.7500 44 984 reunion main 309 312 O____O____O_O_ jtwc_sh SH191986 -25.5000 40.8000 55 0 -25.0000 40.7000 5 44 984 3.50000 3.50000 -25.0000 40.7000 2 50 -25.5000 40.8000 TC 55 10 199
1986049S18043 1986 26 SI MM GISTA 1986-02-22 09:00:00 MX -25.7490 40.5438 main 353 353 P____P____P_P_ SH191986 -26.0075 40.6425 57 0 -25.4927 40.3931 5 44 984 -25.4883 40.4972 2 51 -26.0075 40.6425 TC 57 11 200
1986049S18043 1986 26 SI MM GISTA 1986-02-22 12:00:00 MX -26.2513 40.3496 44 984 reunion main 398 398 O____O____P_O_ jtwc_sh SH191986 -26.5000 40.5000 60 0 -26.0000 40.1000 5 44 984 3.50000 3.50000 -26.0052 40.2986 2 52 -26.5000 40.5000 TC 60 10 196
1986049S18043 1986 26 SI MM GISTA 1986-02-22 15:00:00 MX -26.7186 40.2287 main 424 424 P____P____P_P_ SH191986 -26.9150 40.3923 62 0 -26.4999 40.0046 5 44 984 -26.5445 40.1255 2 53 -26.9150 40.3923 TC 62 9 191
1986049S18043 1986 26 SI MM GISTA 1986-02-22 18:00:00 MX -27.1750 40.1500 44 984 reunion main 451 451 O____O____O_O_ jtwc_sh SH191986 -27.3000 40.3000 65 1 -27.0000 40.0000 5 44 984 3.50000 3.50000 -27.1000 40.0000 2 55 -27.3000 40.3000 TC 65 9 189
1986049S18043 1986 26 SI MM GISTA 1986-02-22 21:00:00 MX -27.6083 40.0689 main 484 484 P____P____P_P_ SH191986 -27.6775 40.1925 67 1 -27.4625 39.9924 5 48 980 -27.6157 39.8984 2 56 -27.6775 40.1925 TC 67 9 188
1986049S18043 1986 26 SI MM GISTA 1986-02-23 00:00:00 MX -28.0880 40.0133 52 976 reunion main 527 527 O____O____P_O_ jtwc_sh SH191986 -28.1000 40.1000 70 1 -28.0000 40.0000 5 52 976 4.00000 4.00000 -28.1520 39.8531 2 57 -28.1000 40.1000 TC 70 11 185
1986049S18043 1986 26 SI MM GISTA 1986-02-23 03:00:00 MX -28.6687 39.9694 main 572 572 P____P____P_P_ SH191986 -28.6050 40.0056 72 1 -28.7275 39.9853 5 52 976 -28.7374 39.8810 2 58 -28.6050 40.0056 TC 72 12 0
1986049S18043 1986 26 SI MM GISTA 1986-02-23 06:00:00 MX -29.3250 40.0000 52 976 reunion main 621 621 O____O____O_O_ jtwc_sh SH191986 -29.2000 40.0000 75 1 -29.5000 40.0000 5 52 976 4.00000 4.00000 -29.4000 40.0000 2 60 -29.2000 40.0000 TC 75 14 175
1986049S18043 1986 26 SI MM GISTA 1986-02-23 09:00:00 MX -30.0142 40.1141 main 673 673 P____P____P_P_ SH191986 -29.8698 40.1254 80 1 -30.1347 40.0338 5 52 976 -30.1823 40.1719 2 58 -29.8698 40.1254 TC 80 15 168
1986049S18043 1986 26 SI MM GISTA 1986-02-23 12:00:00 MX -30.7596 40.3607 52 976 reunion main 728 728 O____O____P_O_ jtwc_sh SH191986 -30.6000 40.4000 85 2 -30.8000 40.2000 5 52 976 4.00000 4.00000 -31.0385 40.4428 2 57 -30.6000 40.4000 TC 85 16 160
1986049S18043 1986 26 SI MM GISTA 1986-02-23 15:00:00 MX -31.5502 40.7561 main 786 786 P____P____P_P_ SH191986 -31.3202 40.8126 85 2 -31.6351 40.5819 5 44 -31.9255 40.8173 2 56 -31.3202 40.8126 TC 85 18 155
1986049S18043 1986 26 SI MM GISTA 1986-02-23 18:00:00 MX -32.3750 41.2500 36 reunion main 847 847 O____O____O_O_ jtwc_sh SH191986 -32.1000 41.3000 85 2 -32.5000 41.1000 5 36 9.90000 -32.8000 41.3000 2 55 -32.1000 41.3000 TC 85 18 153
1986049S18043 1986 26 SI MM GISTA 1986-02-23 21:00:00 MX -33.1911 41.7482 main 913 909 P____P____P_P_ SH191986 -32.9550 41.7582 82 1 -33.2266 41.5858 5 36 -33.6279 41.8907 2 -32.9550 41.7582 TC 82 19 153
1986049S18043 1986 26 SI MM GISTA 1986-02-24 00:00:00 MX -34.0312 42.2794 36 reunion main 978 978 O____O____P_O_ jtwc_sh SH191986 -33.9000 42.2000 80 1 -34.0000 42.2000 5 36 9.90000 -34.4122 42.5705 2 -33.9000 42.2000 TC 80 20 154
1986049S18043 1986 26 SI MM GISTA 1986-02-24 03:00:00 MX -34.9702 42.7914 main 1073 1073 P____P____P_P_ SH191986 -34.9272 42.6013 75 1 -34.9471 43.0281 5 36 -35.1654 43.3153 2 -34.9272 42.6013 TC 75 21 159
1986049S18043 1986 26 SI MM GISTA 1986-02-24 06:00:00 MX -35.9900 43.2100 36 reunion main 1175 1175 O____O____O_O_ jtwc_sh SH191986 -36.0000 43.0000 70 1 -36.0000 44.0000 5 36 9.90000 -35.9000 44.1000 2 -36.0000 43.0000 TC 70 22 167
1986049S18043 1986 26 SI MM GISTA 1986-02-24 09:00:00 TS -37.0716 43.3925 main 1294 1294 P___________P_ SH191986 -37.0716 43.3925 62 0 5 2 -37.0716 43.3925 TC 62 22 165
1986049S18043 1986 26 SI MM GISTA 1986-02-24 12:00:00 TS -38.1000 43.9000 main 1399 1399 O___________O_ jtwc_sh SH191986 -38.1000 43.9000 55 0 2 -38.1000 43.9000 TC 55 22 155
1986049S18043 1986 26 SI MM GISTA 1986-02-24 15:00:00 TS -39.0285 44.5757 main 1495 1495 P___________P_ SH191986 -39.0285 44.5757 50 0 2 -39.0285 44.5757 TC 50 22 145
1986049S18043 1986 26 SI MM GISTA 1986-02-24 18:00:00 TS -39.9000 45.5000 main 1594 1594 O___________O_ jtwc_sh SH191986 -39.9000 45.5000 45 0 -39.9000 45.5000 TC 45 24 137
1986049S18043 1986 26 SI MM GISTA 1986-02-24 21:00:00 TS -40.7567 46.7092 main 1698 1698 P___________P_ SH191986 -40.7567 46.7092 40 0 -40.7567 46.7092 TC 40 26 131
1986049S18043 1986 26 SI MM GISTA 1986-02-25 00:00:00 TS -41.6000 48.1000 main 1799 O___________O_ jtwc_sh SH191986 -41.6000 48.1000 35 0 -41.6000 48.1000 TC 35 27 129

IBTrACS Databaseについて

本データベースは、米国NOAAが公開する1842年以降の世界の熱帯低気圧のベストトラックデータアーカイブInternational Best Track Archive for Climate Stewardship (IBTrACS)を、ウェブで閲覧しやすい形式に変換したものです。

最終更新日:2021-12-03